createdAt,value
2017-12-27T00:00:02.689Z,4.00
2017-12-27T00:01:02.663Z,4.60
2017-12-27T00:02:02.625Z,4.30
2017-12-27T00:03:02.832Z,4.10
2017-12-27T00:04:02.558Z,3.90
2017-12-27T00:05:02.531Z,3.40
2017-12-27T00:06:02.494Z,3.90
2017-12-27T00:07:02.474Z,3.90
2017-12-27T00:08:02.432Z,4.00
2017-12-27T00:09:02.407Z,3.30
2017-12-27T00:10:02.366Z,3.00
2017-12-27T00:11:02.343Z,3.10
2017-12-27T00:12:02.316Z,3.10
2017-12-27T00:13:02.280Z,3.30
2017-12-27T00:14:02.553Z,4.40
2017-12-27T00:15:02.213Z,4.10
2017-12-27T00:16:02.179Z,4.10
2017-12-27T00:17:02.152Z,4.00
2017-12-27T00:18:02.120Z,3.40
2017-12-27T00:19:02.091Z,3.90
2017-12-27T00:20:02.063Z,3.60
2017-12-27T00:21:02.040Z,4.00
2017-12-27T00:22:02.000Z,3.60
2017-12-27T00:23:01.969Z,3.80
2017-12-27T00:24:01.945Z,4.10
2017-12-27T00:25:01.906Z,4.10
2017-12-27T00:26:02.220Z,4.50
2017-12-27T00:27:01.846Z,4.00
2017-12-27T00:28:01.814Z,4.40
2017-12-27T00:29:01.776Z,4.10
2017-12-27T00:30:01.748Z,4.10
2017-12-27T00:31:01.712Z,3.50
2017-12-27T00:32:01.689Z,3.40
2017-12-27T00:33:01.661Z,3.40
2017-12-27T00:34:01.624Z,3.70
2017-12-27T00:35:01.591Z,4.10
2017-12-27T00:36:01.557Z,3.90
2017-12-27T00:37:01.530Z,4.10
2017-12-27T00:38:01.532Z,3.40
2017-12-27T00:39:01.469Z,4.00
2017-12-27T00:40:01.477Z,3.90
2017-12-27T00:41:01.406Z,4.00
2017-12-27T00:42:01.381Z,3.80
2017-12-27T00:43:01.352Z,4.10
2017-12-27T00:44:01.324Z,4.10
2017-12-27T00:45:01.282Z,4.40
2017-12-27T00:46:01.257Z,4.40
2017-12-27T00:47:01.224Z,3.80
2017-12-27T00:48:01.189Z,4.00
2017-12-27T00:49:01.423Z,3.70
2017-12-27T00:50:01.128Z,3.60
2017-12-27T00:51:01.092Z,4.10
2017-12-27T00:52:01.067Z,4.40
2017-12-27T00:53:01.039Z,3.90
2017-12-27T00:54:01.007Z,3.70
2017-12-27T00:55:01.233Z,3.60
2017-12-27T00:56:00.958Z,3.70
2017-12-27T00:57:00.905Z,3.70
2017-12-27T00:58:00.882Z,3.80
2017-12-27T00:59:00.847Z,3.70
2017-12-27T01:00:00.824Z,3.60
2017-12-27T01:01:01.134Z,3.30
2017-12-27T01:02:00.755Z,3.80
2017-12-27T01:03:00.735Z,4.00
2017-12-27T01:04:00.701Z,4.00
2017-12-27T01:05:00.672Z,4.20
2017-12-27T01:06:00.636Z,3.80
2017-12-27T01:07:00.598Z,3.40
2017-12-27T01:08:00.571Z,3.70
2017-12-27T01:09:00.547Z,4.20
2017-12-27T01:10:00.509Z,3.70
2017-12-27T01:11:00.476Z,4.00
2017-12-27T01:12:00.459Z,4.00
2017-12-27T01:13:00.716Z,3.70
2017-12-27T01:14:00.386Z,3.60
2017-12-27T01:15:00.357Z,2.90
2017-12-27T01:16:00.326Z,3.60
2017-12-27T01:17:00.288Z,3.50
2017-12-27T01:18:00.255Z,3.30
2017-12-27T01:19:00.224Z,3.90
2017-12-27T01:20:00.194Z,3.90
2017-12-27T01:21:00.176Z,3.20
2017-12-27T01:22:00.133Z,3.80
2017-12-27T01:23:00.113Z,3.70
2017-12-27T01:24:00.071Z,3.70
2017-12-27T01:25:00.049Z,3.40
2017-12-27T01:26:00.020Z,3.60
2017-12-27T01:26:59.984Z,3.90
2017-12-27T01:27:59.952Z,3.80
2017-12-27T01:28:59.917Z,3.30
2017-12-27T01:29:59.890Z,3.10
2017-12-27T01:30:59.863Z,3.70
2017-12-27T01:31:59.828Z,3.30
2017-12-27T01:32:59.809Z,3.50
2017-12-27T01:33:59.757Z,3.50
2017-12-27T01:34:59.727Z,3.50
2017-12-27T01:35:59.696Z,3.60
2017-12-27T01:36:59.918Z,3.60
2017-12-27T01:37:59.645Z,3.20
2017-12-27T01:38:59.599Z,3.70
2017-12-27T01:39:59.578Z,3.60
2017-12-27T01:40:59.545Z,3.60
2017-12-27T01:41:59.515Z,3.60
2017-12-27T01:42:59.730Z,3.90
2017-12-27T01:43:59.451Z,3.50
2017-12-27T01:44:59.413Z,3.60
2017-12-27T01:45:59.381Z,3.50
2017-12-27T01:46:59.354Z,3.70
2017-12-27T01:47:59.325Z,3.70
2017-12-27T01:48:59.599Z,3.60
2017-12-27T01:49:59.266Z,3.70
2017-12-27T01:50:59.226Z,3.90
2017-12-27T01:51:59.201Z,3.90
2017-12-27T01:52:59.170Z,3.90
2017-12-27T01:53:59.147Z,3.90
2017-12-27T01:54:59.102Z,3.60
2017-12-27T01:55:59.077Z,3.60
2017-12-27T01:56:59.052Z,3.30
2017-12-27T01:57:59.013Z,3.60
2017-12-27T01:58:58.979Z,3.30
2017-12-27T01:59:58.961Z,3.60
2017-12-27T02:00:58.921Z,3.10
2017-12-27T02:01:58.888Z,2.90
2017-12-27T02:02:58.867Z,2.80
2017-12-27T02:03:58.840Z,3.50
2017-12-27T02:04:58.796Z,3.20
2017-12-27T02:05:58.761Z,3.00
2017-12-27T02:06:58.727Z,3.20
2017-12-27T02:07:58.699Z,3.00
2017-12-27T02:08:58.668Z,3.40
2017-12-27T02:09:58.643Z,3.50
2017-12-27T02:10:58.602Z,3.20
2017-12-27T02:11:58.570Z,3.20
2017-12-27T02:12:58.792Z,3.20
2017-12-27T02:13:58.521Z,3.50
2017-12-27T02:14:58.491Z,3.20
2017-12-27T02:15:58.456Z,3.20
2017-12-27T02:16:58.411Z,3.00
2017-12-27T02:17:58.382Z,3.50
2017-12-27T02:18:58.355Z,3.20
2017-12-27T02:19:58.332Z,3.20
2017-12-27T02:20:58.287Z,3.00
2017-12-27T02:21:58.258Z,3.00
2017-12-27T02:22:58.232Z,3.30
2017-12-27T02:23:58.198Z,3.20
2017-12-27T02:24:58.432Z,2.90
2017-12-27T02:25:58.133Z,3.30
2017-12-27T02:26:58.103Z,3.10
2017-12-27T02:27:58.070Z,3.00
2017-12-27T02:28:58.043Z,2.80
2017-12-27T02:29:58.021Z,3.10
2017-12-27T02:30:58.013Z,3.10
2017-12-27T02:31:57.948Z,2.90
2017-12-27T02:32:57.911Z,3.20
2017-12-27T02:33:57.931Z,2.90
2017-12-27T02:34:57.854Z,3.00
2017-12-27T02:35:57.822Z,3.30
2017-12-27T02:36:57.801Z,2.50
2017-12-27T02:37:57.766Z,3.00
2017-12-27T02:38:57.737Z,2.80
2017-12-27T02:39:57.705Z,3.10
2017-12-27T02:40:57.678Z,3.20
2017-12-27T02:41:57.638Z,3.70
2017-12-27T02:42:57.607Z,3.00
2017-12-27T02:43:57.568Z,3.00
2017-12-27T02:44:57.551Z,3.20
2017-12-27T02:45:57.508Z,3.10
2017-12-27T02:46:57.489Z,2.80
2017-12-27T02:47:57.445Z,3.00
2017-12-27T02:48:57.412Z,3.10
2017-12-27T02:49:57.384Z,3.00
2017-12-27T02:50:57.359Z,3.10
2017-12-27T02:51:57.321Z,2.80
2017-12-27T02:52:57.305Z,2.90
2017-12-27T02:53:57.268Z,2.70
2017-12-27T02:54:57.233Z,2.80
2017-12-27T02:55:57.192Z,2.70
2017-12-27T02:56:57.167Z,3.00
2017-12-27T02:57:57.139Z,2.90
2017-12-27T02:58:57.101Z,2.90
2017-12-27T02:59:57.076Z,2.70
2017-12-27T03:00:57.049Z,2.90
2017-12-27T03:01:57.007Z,2.70
2017-12-27T03:02:56.976Z,2.80
2017-12-27T03:03:56.951Z,3.00
2017-12-27T03:04:56.913Z,2.80
2017-12-27T03:05:56.880Z,2.70
2017-12-27T03:06:56.857Z,2.90
2017-12-27T03:07:56.826Z,2.60
2017-12-27T03:08:56.786Z,2.50
2017-12-27T03:09:56.761Z,2.90
2017-12-27T03:10:56.729Z,2.70
2017-12-27T03:11:56.695Z,2.60
2017-12-27T03:12:56.915Z,2.70
2017-12-27T03:13:56.636Z,2.80
2017-12-27T03:14:56.597Z,2.70
2017-12-27T03:15:56.570Z,2.50
2017-12-27T03:16:56.553Z,2.60
2017-12-27T03:17:56.507Z,2.50
2017-12-27T03:18:56.476Z,3.10
2017-12-27T03:19:56.444Z,2.30
2017-12-27T03:20:56.409Z,2.50
2017-12-27T03:21:56.378Z,2.40
2017-12-27T03:22:56.359Z,2.70
2017-12-27T03:23:56.323Z,2.50
2017-12-27T03:24:56.299Z,2.60
2017-12-27T03:25:56.257Z,2.40
2017-12-27T03:26:56.223Z,2.60
2017-12-27T03:27:56.199Z,2.60
2017-12-27T03:28:56.165Z,2.40
2017-12-27T03:29:56.141Z,2.30
2017-12-27T03:30:56.112Z,2.40
2017-12-27T03:31:56.076Z,2.20
2017-12-27T03:32:56.041Z,2.60
2017-12-27T03:33:56.012Z,2.70
2017-12-27T03:34:55.988Z,2.50
2017-12-27T03:35:55.947Z,2.50
2017-12-27T03:36:55.915Z,2.20
2017-12-27T03:37:55.888Z,2.70
2017-12-27T03:38:55.862Z,2.60
2017-12-27T03:39:55.826Z,2.80
2017-12-27T03:40:55.789Z,2.40
2017-12-27T03:41:56.010Z,2.20
2017-12-27T03:42:55.734Z,2.30
2017-12-27T03:43:55.696Z,2.40
2017-12-27T03:44:55.676Z,2.50
2017-12-27T03:45:55.638Z,2.60
2017-12-27T03:46:55.607Z,2.20
2017-12-27T03:47:55.879Z,2.30
2017-12-27T03:48:55.559Z,2.70
2017-12-27T03:49:55.512Z,2.50
2017-12-27T03:50:55.486Z,2.60
2017-12-27T03:51:55.458Z,2.60
2017-12-27T03:52:55.423Z,2.30
2017-12-27T03:53:56.136Z,2.90
2017-12-27T03:54:55.370Z,2.60
2017-12-27T03:55:55.335Z,2.70
2017-12-27T03:56:55.292Z,2.70
2017-12-27T03:57:55.267Z,2.20
2017-12-27T03:58:55.228Z,2.50
2017-12-27T03:59:55.204Z,2.70
2017-12-27T04:00:55.182Z,2.50
2017-12-27T04:01:55.143Z,2.50
2017-12-27T04:02:55.117Z,3.00
2017-12-27T04:03:55.081Z,2.80
2017-12-27T04:04:55.050Z,3.10
2017-12-27T04:05:55.014Z,3.10
2017-12-27T04:06:54.981Z,3.50
2017-12-27T04:07:54.964Z,3.70
2017-12-27T04:08:54.926Z,4.00
2017-12-27T04:09:54.897Z,4.50
2017-12-27T04:10:54.863Z,4.30
2017-12-27T04:11:54.831Z,4.40
2017-12-27T04:12:54.800Z,4.90
2017-12-27T04:13:54.770Z,3.80
2017-12-27T04:14:54.736Z,4.00
2017-12-27T04:15:54.704Z,3.50
2017-12-27T04:16:54.921Z,3.30
2017-12-27T04:17:54.639Z,2.90
2017-12-27T04:18:54.620Z,2.80
2017-12-27T04:19:54.585Z,3.10
2017-12-27T04:20:54.552Z,2.70
2017-12-27T04:21:54.521Z,2.70
2017-12-27T04:22:54.490Z,3.10
2017-12-27T04:23:54.453Z,3.40
2017-12-27T04:24:54.425Z,2.80
2017-12-27T04:25:54.392Z,3.00
2017-12-27T04:26:54.361Z,2.90
2017-12-27T04:27:54.332Z,2.40
2017-12-27T04:28:54.310Z,3.20
2017-12-27T04:29:54.270Z,3.40
2017-12-27T04:30:54.238Z,3.10
2017-12-27T04:31:54.210Z,4.00
2017-12-27T04:32:54.181Z,3.90
2017-12-27T04:33:54.146Z,4.50
2017-12-27T04:34:54.116Z,3.50
2017-12-27T04:35:54.093Z,3.60
2017-12-27T04:36:54.058Z,3.00
2017-12-27T04:37:54.024Z,3.00
2017-12-27T04:38:53.992Z,2.60
2017-12-27T04:39:53.959Z,2.30
2017-12-27T04:40:53.936Z,2.60
2017-12-27T04:41:53.892Z,2.60
2017-12-27T04:42:53.866Z,3.00
2017-12-27T04:43:53.829Z,2.60
2017-12-27T04:44:53.808Z,3.00
2017-12-27T04:45:53.770Z,2.90
2017-12-27T04:46:53.746Z,3.20
2017-12-27T04:47:53.707Z,3.60
2017-12-27T04:48:53.671Z,3.90
2017-12-27T04:49:53.638Z,4.70
2017-12-27T04:50:53.613Z,6.00
2017-12-27T04:51:53.593Z,4.60
2017-12-27T04:52:53.854Z,4.70
2017-12-27T04:53:53.514Z,4.50
2017-12-27T04:54:53.483Z,3.50
2017-12-27T04:55:53.456Z,3.10
2017-12-27T04:56:53.426Z,2.90
2017-12-27T04:57:53.397Z,3.00
2017-12-27T04:58:53.357Z,2.80
2017-12-27T04:59:53.337Z,3.10
2017-12-27T05:00:53.300Z,3.00
2017-12-27T05:01:53.276Z,3.30
2017-12-27T05:02:53.245Z,3.60
2017-12-27T05:03:53.208Z,3.60
2017-12-27T05:04:53.177Z,3.10
2017-12-27T05:05:53.146Z,3.20
2017-12-27T05:06:53.115Z,3.40
2017-12-27T05:07:53.080Z,3.10
2017-12-27T05:08:53.047Z,3.00
2017-12-27T05:09:53.013Z,3.10
2017-12-27T05:10:52.987Z,3.20
2017-12-27T05:11:52.958Z,3.10
2017-12-27T05:12:52.932Z,2.90
2017-12-27T05:13:52.899Z,2.80
2017-12-27T05:14:52.859Z,2.90
2017-12-27T05:15:52.836Z,2.80
2017-12-27T05:16:52.800Z,2.80
2017-12-27T05:17:52.769Z,2.80
2017-12-27T05:18:52.748Z,2.80
2017-12-27T05:19:52.710Z,2.70
2017-12-27T05:20:52.679Z,2.60
2017-12-27T05:21:52.643Z,2.90
2017-12-27T05:22:52.623Z,3.10
2017-12-27T05:23:52.586Z,2.70
2017-12-27T05:24:52.546Z,2.70
2017-12-27T05:25:52.521Z,3.20
2017-12-27T05:26:52.483Z,3.00
2017-12-27T05:27:52.715Z,3.20
2017-12-27T05:28:52.428Z,3.20
2017-12-27T05:29:52.401Z,3.10
2017-12-27T05:30:52.357Z,2.90
2017-12-27T05:31:52.327Z,2.80
2017-12-27T05:32:52.307Z,3.30
2017-12-27T05:33:52.270Z,3.30
2017-12-27T05:34:52.241Z,3.60
2017-12-27T05:35:52.208Z,2.70
2017-12-27T05:36:52.172Z,3.00
2017-12-27T05:37:52.142Z,2.70
2017-12-27T05:38:52.117Z,2.90
2017-12-27T05:39:52.091Z,2.90
2017-12-27T05:40:52.053Z,2.80
2017-12-27T05:41:52.017Z,2.90
2017-12-27T05:42:51.990Z,3.10
2017-12-27T05:43:51.959Z,2.90
2017-12-27T05:44:51.933Z,2.70
2017-12-27T05:45:51.894Z,3.00
2017-12-27T05:46:51.870Z,2.80
2017-12-27T05:47:51.834Z,2.80
2017-12-27T05:48:51.802Z,3.40
2017-12-27T05:49:51.782Z,3.10
2017-12-27T05:50:51.749Z,3.00
2017-12-27T05:51:51.725Z,3.00
2017-12-27T05:52:51.683Z,3.00
2017-12-27T05:53:51.652Z,2.70
2017-12-27T05:54:51.624Z,3.30
2017-12-27T05:55:51.591Z,3.30
2017-12-27T05:56:51.549Z,2.90
2017-12-27T05:57:51.831Z,3.10
2017-12-27T05:58:51.486Z,3.60
2017-12-27T05:59:51.461Z,3.20
2017-12-27T06:00:51.435Z,3.70
2017-12-27T06:01:51.404Z,3.10
2017-12-27T06:02:51.366Z,3.00
2017-12-27T06:03:51.342Z,3.00
2017-12-27T06:04:51.305Z,3.20
2017-12-27T06:05:51.287Z,3.40
2017-12-27T06:06:51.246Z,3.00
2017-12-27T06:07:51.220Z,3.20
2017-12-27T06:08:51.179Z,3.00
2017-12-27T06:09:51.151Z,3.00
2017-12-27T06:10:51.120Z,3.30
2017-12-27T06:11:51.092Z,3.60
2017-12-27T06:12:51.067Z,3.20
2017-12-27T06:13:51.028Z,3.00
2017-12-27T06:14:50.995Z,3.00
2017-12-27T06:15:51.217Z,3.70
2017-12-27T06:16:50.935Z,3.30
2017-12-27T06:17:50.908Z,3.70
2017-12-27T06:18:50.875Z,3.20
2017-12-27T06:19:50.840Z,2.60
2017-12-27T06:20:50.806Z,3.00
2017-12-27T06:21:50.784Z,2.40
2017-12-27T06:22:50.753Z,2.50
2017-12-27T06:23:50.718Z,2.80
2017-12-27T06:24:50.689Z,2.50
2017-12-27T06:25:50.662Z,2.70
2017-12-27T06:26:50.632Z,2.40
2017-12-27T06:27:50.594Z,2.60
2017-12-27T06:28:50.561Z,2.50
2017-12-27T06:29:50.533Z,2.60
2017-12-27T06:30:50.510Z,2.50
2017-12-27T06:31:50.478Z,2.40
2017-12-27T06:32:50.440Z,2.50
2017-12-27T06:33:50.406Z,2.70
2017-12-27T06:34:50.387Z,2.60
2017-12-27T06:35:50.353Z,2.80
2017-12-27T06:36:50.317Z,2.50
2017-12-27T06:37:50.296Z,2.50
2017-12-27T06:38:50.258Z,2.80
2017-12-27T06:39:50.230Z,2.90
2017-12-27T06:40:50.194Z,2.50
2017-12-27T06:41:50.169Z,2.70
2017-12-27T06:42:50.125Z,3.00
2017-12-27T06:43:50.108Z,2.50
2017-12-27T06:44:50.069Z,2.70
2017-12-27T06:45:50.043Z,2.80
2017-12-27T06:46:50.006Z,2.70
2017-12-27T06:47:49.981Z,2.60
2017-12-27T06:48:49.943Z,3.00
2017-12-27T06:49:49.911Z,2.50
2017-12-27T06:50:49.889Z,2.50
2017-12-27T06:51:49.860Z,2.90
2017-12-27T06:52:49.820Z,2.50
2017-12-27T06:53:49.789Z,2.60
2017-12-27T06:54:49.765Z,2.80
2017-12-27T06:55:49.727Z,2.50
2017-12-27T06:56:49.701Z,2.70
2017-12-27T06:57:49.673Z,2.70
2017-12-27T06:58:49.639Z,3.00
2017-12-27T06:59:49.600Z,2.30
2017-12-27T07:00:49.578Z,2.90
2017-12-27T07:01:49.541Z,2.90
2017-12-27T07:02:49.510Z,2.90
2017-12-27T07:03:49.733Z,2.80
2017-12-27T07:04:49.462Z,2.50
2017-12-27T07:05:49.414Z,2.50
2017-12-27T07:06:49.399Z,2.70
2017-12-27T07:07:49.367Z,2.70
2017-12-27T07:08:49.333Z,2.40
2017-12-27T07:09:49.298Z,2.60
2017-12-27T07:10:49.260Z,2.50
2017-12-27T07:11:49.270Z,2.50
2017-12-27T07:12:49.215Z,2.50
2017-12-27T07:13:49.181Z,2.40
2017-12-27T07:14:49.148Z,2.60
2017-12-27T07:15:49.106Z,2.40
2017-12-27T07:16:49.082Z,2.40
2017-12-27T07:17:49.057Z,3.10
2017-12-27T07:18:49.016Z,2.80
2017-12-27T07:19:48.991Z,2.30
2017-12-27T07:20:48.965Z,2.70
2017-12-27T07:21:48.932Z,2.60
2017-12-27T07:22:48.900Z,2.70
2017-12-27T07:23:48.863Z,2.40
2017-12-27T07:24:48.827Z,2.90
2017-12-27T07:25:48.798Z,2.90
2017-12-27T07:26:48.765Z,3.20
2017-12-27T07:27:48.744Z,2.80
2017-12-27T07:28:48.714Z,3.00
2017-12-27T07:29:48.686Z,2.50
2017-12-27T07:30:48.648Z,2.80
2017-12-27T07:31:48.615Z,2.40
2017-12-27T07:32:48.585Z,2.70
2017-12-27T07:33:48.853Z,2.80
2017-12-27T07:34:48.527Z,3.00
2017-12-27T07:35:48.498Z,2.90
2017-12-27T07:36:48.465Z,2.90
2017-12-27T07:37:48.432Z,2.70
2017-12-27T07:38:48.403Z,3.20
2017-12-27T07:39:48.368Z,3.30
2017-12-27T07:40:48.342Z,3.50
2017-12-27T07:41:48.320Z,3.60
2017-12-27T07:42:48.271Z,3.40
2017-12-27T07:43:48.248Z,3.30
2017-12-27T07:44:48.229Z,2.90
2017-12-27T07:45:48.183Z,3.30
2017-12-27T07:46:48.151Z,3.20
2017-12-27T07:47:48.116Z,3.40
2017-12-27T07:48:48.098Z,3.30
2017-12-27T07:49:48.066Z,3.80
2017-12-27T07:50:48.032Z,3.90
2017-12-27T07:51:48.026Z,4.10
2017-12-27T07:52:47.971Z,3.80
2017-12-27T07:53:47.932Z,4.20
2017-12-27T07:54:47.908Z,3.90
2017-12-27T07:55:47.875Z,4.50
2017-12-27T07:56:47.848Z,4.30
2017-12-27T07:57:47.814Z,4.80
2017-12-27T07:58:47.786Z,4.70
2017-12-27T07:59:47.761Z,4.60
2017-12-27T08:00:47.721Z,4.90
2017-12-27T08:01:47.691Z,3.80
2017-12-27T08:02:47.660Z,4.20
2017-12-27T08:03:47.629Z,4.20
2017-12-27T08:04:47.600Z,4.50
2017-12-27T08:05:47.574Z,4.10
2017-12-27T08:06:47.536Z,4.30
2017-12-27T08:07:47.506Z,4.20
2017-12-27T08:08:47.502Z,4.10
2017-12-27T08:09:47.443Z,4.00
2017-12-27T08:10:47.419Z,4.00
2017-12-27T08:11:47.389Z,3.60
2017-12-27T08:12:47.360Z,3.60
2017-12-27T08:13:47.316Z,4.10
2017-12-27T08:14:47.286Z,3.80
2017-12-27T08:15:47.255Z,3.40
2017-12-27T08:16:47.229Z,3.20
2017-12-27T08:17:47.204Z,4.00
2017-12-27T08:18:47.174Z,3.70
2017-12-27T08:19:47.141Z,3.50
2017-12-27T08:20:47.115Z,3.10
2017-12-27T08:21:47.074Z,3.00
2017-12-27T08:22:47.048Z,3.00
2017-12-27T08:23:47.008Z,2.90
2017-12-27T08:24:46.985Z,2.80
2017-12-27T08:25:46.952Z,3.00
2017-12-27T08:26:46.927Z,3.10
2017-12-27T08:27:46.891Z,3.00
2017-12-27T08:28:46.865Z,3.00
2017-12-27T08:29:46.841Z,2.90
2017-12-27T08:30:46.796Z,3.00
2017-12-27T08:31:46.768Z,3.30
2017-12-27T08:32:46.740Z,3.00
2017-12-27T08:33:46.706Z,2.70
2017-12-27T08:34:46.681Z,2.60
2017-12-27T08:35:46.655Z,3.20
2017-12-27T08:36:46.625Z,2.80
2017-12-27T08:37:46.586Z,3.00
2017-12-27T08:38:46.550Z,2.80
2017-12-27T08:39:46.525Z,3.00
2017-12-27T08:40:46.492Z,2.70
2017-12-27T08:41:46.466Z,3.00
2017-12-27T08:42:46.435Z,2.90
2017-12-27T08:43:46.400Z,2.70
2017-12-27T08:44:46.373Z,2.70
2017-12-27T08:45:46.348Z,3.00
2017-12-27T08:46:46.316Z,2.80
2017-12-27T08:47:46.290Z,3.40
2017-12-27T08:48:46.250Z,4.00
2017-12-27T08:49:46.219Z,3.60
2017-12-27T08:50:46.184Z,3.40
2017-12-27T08:51:46.156Z,4.00
2017-12-27T08:52:46.126Z,3.60
2017-12-27T08:53:46.095Z,3.40
2017-12-27T08:54:46.064Z,3.40
2017-12-27T08:55:46.035Z,3.00
2017-12-27T08:56:46.005Z,3.40
2017-12-27T08:57:45.971Z,2.80
2017-12-27T08:58:45.938Z,3.20
2017-12-27T08:59:45.912Z,3.30
2017-12-27T09:00:45.889Z,3.20
2017-12-27T09:01:45.852Z,3.00
2017-12-27T09:02:45.819Z,3.60
2017-12-27T09:03:45.792Z,3.00
2017-12-27T09:04:45.767Z,3.20
2017-12-27T09:05:45.723Z,3.00
2017-12-27T09:06:45.709Z,5.10
2017-12-27T09:07:45.673Z,4.70
2017-12-27T09:08:45.634Z,4.00
2017-12-27T09:09:45.606Z,4.30
2017-12-27T09:10:45.575Z,4.20
2017-12-27T09:11:45.543Z,3.60
2017-12-27T09:12:45.528Z,3.70
2017-12-27T09:13:45.489Z,3.10
2017-12-27T09:14:45.454Z,3.00
2017-12-27T09:15:45.433Z,3.30
2017-12-27T09:16:45.397Z,3.20
2017-12-27T09:17:45.369Z,3.30
2017-12-27T09:18:45.337Z,3.60
2017-12-27T09:19:45.310Z,3.50
2017-12-27T09:20:45.273Z,2.80
2017-12-27T09:21:45.241Z,2.80
2017-12-27T09:22:45.227Z,2.80
2017-12-27T09:23:45.195Z,3.30
2017-12-27T09:24:45.160Z,3.40
2017-12-27T09:25:45.120Z,2.80
2017-12-27T09:26:45.093Z,3.10
2017-12-27T09:27:45.061Z,3.40
2017-12-27T09:28:45.043Z,3.10
2017-12-27T09:29:45.006Z,3.20
2017-12-27T09:30:44.974Z,3.10
2017-12-27T09:31:44.979Z,3.10
2017-12-27T09:32:44.916Z,3.00
2017-12-27T09:33:44.887Z,2.50
2017-12-27T09:34:44.862Z,3.00
2017-12-27T09:35:44.840Z,2.90
2017-12-27T09:36:44.792Z,2.60
2017-12-27T09:37:44.767Z,2.40
2017-12-27T09:38:44.743Z,3.00
2017-12-27T09:39:44.710Z,2.90
2017-12-27T09:40:44.682Z,2.80
2017-12-27T09:41:44.642Z,2.80
2017-12-27T09:42:44.618Z,3.10
2017-12-27T09:43:44.592Z,2.90
2017-12-27T09:44:44.861Z,3.30
2017-12-27T09:45:44.533Z,2.90
2017-12-27T09:46:44.496Z,2.90
2017-12-27T09:47:44.471Z,2.90
2017-12-27T09:48:44.448Z,3.10
2017-12-27T09:49:44.424Z,2.70
2017-12-27T09:50:44.378Z,2.90
2017-12-27T09:51:44.348Z,3.30
2017-12-27T09:52:44.325Z,3.30
2017-12-27T09:53:44.291Z,3.30
2017-12-27T09:54:44.276Z,2.90
2017-12-27T09:55:44.235Z,3.60
2017-12-27T09:56:44.195Z,3.50
2017-12-27T09:57:44.204Z,3.50
2017-12-27T09:58:44.138Z,3.30
2017-12-27T09:59:44.107Z,3.50
2017-12-27T10:00:44.084Z,3.20
2017-12-27T10:01:44.052Z,3.30
2017-12-27T10:02:44.020Z,3.30
2017-12-27T10:03:43.985Z,3.00
2017-12-27T10:04:43.969Z,3.20
2017-12-27T10:05:43.938Z,3.40
2017-12-27T10:06:43.901Z,3.00
2017-12-27T10:07:43.875Z,3.00
2017-12-27T10:08:43.845Z,3.80
2017-12-27T10:09:43.809Z,2.90
2017-12-27T10:10:43.791Z,3.00
2017-12-27T10:11:43.754Z,3.40
2017-12-27T10:12:43.713Z,3.50
2017-12-27T10:13:43.688Z,3.50
2017-12-27T10:14:43.657Z,3.30
2017-12-27T10:15:43.624Z,3.80
2017-12-27T10:16:43.595Z,3.30
2017-12-27T10:17:43.576Z,2.90
2017-12-27T10:18:43.533Z,3.40
2017-12-27T10:19:43.510Z,3.40
2017-12-27T10:20:43.476Z,3.30
2017-12-27T10:21:43.452Z,3.40
2017-12-27T10:22:43.422Z,3.40
2017-12-27T10:23:43.386Z,3.50
2017-12-27T10:24:43.358Z,3.60
2017-12-27T10:25:43.322Z,3.50
2017-12-27T10:26:43.287Z,3.60
2017-12-27T10:27:43.268Z,3.50
2017-12-27T10:28:43.234Z,3.60
2017-12-27T10:29:43.203Z,3.20
2017-12-27T10:30:43.178Z,3.40
2017-12-27T10:31:43.147Z,3.60
2017-12-27T10:32:43.108Z,3.80
2017-12-27T10:33:43.092Z,3.50
2017-12-27T10:34:43.059Z,3.60
2017-12-27T10:35:43.031Z,3.60
2017-12-27T10:36:42.992Z,3.70
2017-12-27T10:37:42.965Z,3.50
2017-12-27T10:38:42.927Z,3.20
2017-12-27T10:39:42.900Z,3.20
2017-12-27T10:40:42.879Z,3.90
2017-12-27T10:41:42.841Z,3.10
2017-12-27T10:42:42.813Z,3.50
2017-12-27T10:43:42.774Z,3.40
2017-12-27T10:44:42.751Z,3.40
2017-12-27T10:45:42.720Z,3.40
2017-12-27T10:46:42.687Z,3.70
2017-12-27T10:47:42.669Z,3.30
2017-12-27T10:48:42.634Z,3.40
2017-12-27T10:49:42.598Z,3.20
2017-12-27T10:50:42.575Z,3.30
2017-12-27T10:51:42.543Z,2.90
2017-12-27T10:52:42.509Z,2.90
2017-12-27T10:53:42.480Z,2.90
2017-12-27T10:54:42.442Z,2.70
2017-12-27T10:55:42.418Z,3.00
2017-12-27T10:56:42.402Z,2.90
2017-12-27T10:57:42.358Z,2.90
2017-12-27T10:58:42.332Z,2.90
2017-12-27T10:59:42.292Z,2.90
2017-12-27T11:00:42.270Z,3.20
2017-12-27T11:01:42.246Z,2.70
2017-12-27T11:02:42.216Z,2.60
2017-12-27T11:03:42.186Z,3.30
2017-12-27T11:04:42.150Z,3.20
2017-12-27T11:05:42.125Z,3.40
2017-12-27T11:06:42.099Z,3.30
2017-12-27T11:07:42.061Z,3.40
2017-12-27T11:08:42.043Z,3.50
2017-12-27T11:09:41.999Z,3.00
2017-12-27T11:10:41.974Z,3.80
2017-12-27T11:11:41.936Z,3.50
2017-12-27T11:12:41.914Z,3.30
2017-12-27T11:13:42.133Z,3.30
2017-12-27T11:14:41.849Z,4.00
2017-12-27T11:15:41.826Z,3.50
2017-12-27T11:16:41.803Z,3.30
2017-12-27T11:17:41.765Z,3.90
2017-12-27T11:18:41.741Z,3.90
2017-12-27T11:19:41.707Z,4.00
2017-12-27T11:20:41.678Z,3.70
2017-12-27T11:21:41.648Z,3.70
2017-12-27T11:22:41.622Z,4.00
2017-12-27T11:23:41.595Z,3.50
2017-12-27T11:24:41.561Z,3.40
2017-12-27T11:25:41.528Z,3.30
2017-12-27T11:26:41.504Z,3.60
2017-12-27T11:27:41.474Z,3.20
2017-12-27T11:28:41.450Z,3.50
2017-12-27T11:29:41.426Z,3.40
2017-12-27T11:30:41.392Z,3.10
2017-12-27T11:31:41.358Z,2.80
2017-12-27T11:32:41.335Z,2.90
2017-12-27T11:33:41.312Z,2.50
2017-12-27T11:34:41.286Z,2.90
2017-12-27T11:35:41.257Z,2.90
2017-12-27T11:36:41.216Z,2.50
2017-12-27T11:37:41.188Z,3.00
2017-12-27T11:38:41.176Z,2.30
2017-12-27T11:39:41.147Z,2.80
2017-12-27T11:40:41.102Z,2.60
2017-12-27T11:41:41.076Z,2.60
2017-12-27T11:42:41.053Z,2.70
2017-12-27T11:43:41.028Z,2.60
2017-12-27T11:44:40.994Z,2.60
2017-12-27T11:45:40.974Z,2.20
2017-12-27T11:46:40.947Z,2.70
2017-12-27T11:47:40.906Z,2.50
2017-12-27T11:48:40.884Z,2.90
2017-12-27T11:49:40.859Z,3.00
2017-12-27T11:50:40.821Z,2.70
2017-12-27T11:51:40.792Z,2.60
2017-12-27T11:52:40.761Z,3.10
2017-12-27T11:53:40.735Z,2.90
2017-12-27T11:54:40.711Z,3.10
2017-12-27T11:55:40.681Z,3.20
2017-12-27T11:56:40.657Z,3.30
2017-12-27T11:57:40.614Z,3.30
2017-12-27T11:58:40.593Z,3.30
2017-12-27T11:59:40.562Z,3.00
2017-12-27T12:00:40.542Z,2.90
2017-12-27T12:01:40.513Z,3.10
2017-12-27T12:02:40.480Z,2.80
2017-12-27T12:03:40.449Z,2.90
2017-12-27T12:04:40.423Z,2.90
2017-12-27T12:05:40.399Z,3.00
2017-12-27T12:06:40.362Z,2.90
2017-12-27T12:07:40.337Z,3.20
2017-12-27T12:08:40.301Z,2.80
2017-12-27T12:09:40.269Z,2.90
2017-12-27T12:10:40.243Z,2.70
2017-12-27T12:11:40.213Z,2.60
2017-12-27T12:12:40.178Z,3.00
2017-12-27T12:13:40.502Z,3.00
2017-12-27T12:14:40.119Z,2.90
2017-12-27T12:15:40.091Z,3.10
2017-12-27T12:16:40.065Z,2.70
2017-12-27T12:17:40.044Z,2.90
2017-12-27T12:18:40.004Z,3.00
2017-12-27T12:19:39.975Z,2.90
2017-12-27T12:20:39.954Z,3.00
2017-12-27T12:21:39.919Z,2.80
2017-12-27T12:22:39.891Z,2.80
2017-12-27T12:23:39.870Z,2.90
2017-12-27T12:24:39.836Z,3.20
2017-12-27T12:25:39.803Z,2.80
2017-12-27T12:26:39.789Z,3.00
2017-12-27T12:27:39.749Z,3.60
2017-12-27T12:28:39.719Z,3.00
2017-12-27T12:29:39.687Z,3.20
2017-12-27T12:30:39.653Z,2.70
2017-12-27T12:31:39.632Z,2.80
2017-12-27T12:32:39.604Z,2.90
2017-12-27T12:33:39.574Z,2.90
2017-12-27T12:34:39.540Z,2.80
2017-12-27T12:35:39.510Z,3.10
2017-12-27T12:36:39.489Z,2.60
2017-12-27T12:37:39.451Z,2.90
2017-12-27T12:38:39.427Z,3.00
2017-12-27T12:39:39.400Z,2.70
2017-12-27T12:40:39.367Z,2.60
2017-12-27T12:41:39.341Z,2.80
2017-12-27T12:42:39.309Z,2.80
2017-12-27T12:43:39.278Z,2.50
2017-12-27T12:44:39.260Z,2.40
2017-12-27T12:45:39.221Z,2.60
2017-12-27T12:46:39.190Z,2.50
2017-12-27T12:47:39.168Z,2.40
2017-12-27T12:48:39.134Z,2.70
2017-12-27T12:49:39.356Z,2.80
2017-12-27T12:50:39.082Z,2.30
2017-12-27T12:51:39.056Z,2.90
2017-12-27T12:52:39.013Z,2.60
2017-12-27T12:53:38.991Z,2.70
2017-12-27T12:54:38.957Z,3.10
2017-12-27T12:55:38.933Z,2.90
2017-12-27T12:56:38.909Z,2.60
2017-12-27T12:57:38.881Z,2.60
2017-12-27T12:58:38.854Z,2.60
2017-12-27T12:59:38.817Z,2.50
2017-12-27T13:00:38.785Z,2.60
2017-12-27T13:01:38.756Z,2.30
2017-12-27T13:02:38.729Z,2.30
2017-12-27T13:03:38.714Z,3.00
2017-12-27T13:04:38.676Z,2.70
2017-12-27T13:05:38.636Z,2.80
2017-12-27T13:06:38.619Z,3.00
2017-12-27T13:07:38.596Z,2.40
2017-12-27T13:08:38.554Z,2.90
2017-12-27T13:09:38.528Z,2.60
2017-12-27T13:10:38.493Z,2.40
2017-12-27T13:11:38.462Z,2.60
2017-12-27T13:12:38.435Z,2.70
2017-12-27T13:13:38.414Z,2.40
2017-12-27T13:14:38.381Z,2.40
2017-12-27T13:15:38.344Z,2.50
2017-12-27T13:16:38.324Z,2.20
2017-12-27T13:17:38.294Z,2.40